In Rescue
 
Open Full Screen Window  High Contrast Mode
Wind Gusting 00 knots
07
January 20, 2022 8:14 AM EST
Weather Information
Wind Direction
  310 °
Wind Speed
  07 kt (8 mph)
Wind Gust
  00 kt (0 mph)
Altimeter
30.42 in
Visibility
10 SM
Temperature
-08° C
18° F
Dewpoint
-15° C
F
Humidity
58%
Sky Condition
Overcast @ 3,500 ft
VFR

METAR KRNP 201314Z AUTO 31007KT 10SM OVC035 M08/M15 A3042 RMK AO2 T10831147

FAA Disclaimer: The data displayed is for advisory purposes only and is not to be used for flight planning or operations.